Terminal Aerodrome Forecast
Issued by NWS

Home | Current Version | Previous Version | Text Only | Print | Product List | Glossary On
Versions: 1 2 3 4 5 6 7 8 9 10 11 12 13 14 15 16 17 18 19 20 21 22 23 24 25 26
000
FTUS43 KLSX 022300
TAFSUS
TAF
KSUS 022335Z 0300/0324 12006KT P6SM BKN250
     FM030300 13007KT P6SM BKN050
     FM030700 15010KT 4SM -FZRA BR OVC008
     FM031100 18011KT 6SM -RA BR OVC009
     FM032200 25006KT 6SM -DZ BR OVC009=

USA.gov is the U.S. government's official web portal to all federal, state and local government web resources and services.